createdAt,value
2023-06-23T00:02:09.837Z,13.88
2023-06-23T00:04:36.396Z,13.82
2023-06-23T00:07:03.022Z,13.43
2023-06-23T00:09:29.543Z,11.82
2023-06-23T00:11:56.108Z,14.40
2023-06-23T00:14:22.687Z,12.20
2023-06-23T00:16:49.253Z,13.85
2023-06-23T00:19:15.804Z,14.13
2023-06-23T00:21:42.396Z,11.50
2023-06-23T00:24:08.937Z,14.60
2023-06-23T00:26:35.565Z,12.10
2023-06-23T00:29:02.745Z,13.23
2023-06-23T00:31:29.345Z,15.50
2023-06-23T00:33:55.917Z,11.38
2023-06-23T00:36:22.472Z,13.00
2023-06-23T00:38:49.031Z,16.75
2023-06-23T00:41:17.475Z,14.30
2023-06-23T00:43:45.760Z,14.02
2023-06-23T00:46:21.391Z,15.20
2023-06-23T00:48:49.327Z,15.13
2023-06-23T00:51:16.566Z,17.10
2023-06-23T00:53:46.232Z,17.48
2023-06-23T00:56:12.841Z,15.75
2023-06-23T00:58:39.560Z,14.68
2023-06-23T01:01:06.134Z,16.50
2023-06-23T01:03:33.166Z,18.23
2023-06-23T01:06:19.260Z,18.05
2023-06-23T01:09:03.546Z,17.55
2023-06-23T01:11:36.724Z,16.50
2023-06-23T01:14:10.023Z,16.25
2023-06-23T01:16:45.875Z,19.10
2023-06-23T01:19:35.698Z,17.55
2023-06-23T01:22:22.623Z,16.83
2023-06-23T01:25:04.338Z,17.83
2023-06-23T01:27:46.814Z,20.83
2023-06-23T01:30:16.219Z,17.67
2023-06-23T01:32:49.423Z,16.58
2023-06-23T01:35:26.546Z,17.65
2023-06-23T01:38:04.022Z,18.50
2023-06-23T01:40:30.850Z,17.45
2023-06-23T01:43:01.032Z,18.98
2023-06-23T01:45:27.767Z,17.45
2023-06-23T01:47:58.591Z,17.50
2023-06-23T01:50:25.836Z,16.95
2023-06-23T01:52:53.743Z,15.75
2023-06-23T01:55:21.108Z,16.13
2023-06-23T01:57:49.759Z,19.65
2023-06-23T02:00:18.655Z,16.95
2023-06-23T02:02:51.144Z,15.52
2023-06-23T02:05:22.060Z,15.13
2023-06-23T02:07:51.110Z,19.13
2023-06-23T02:10:20.560Z,17.58
2023-06-23T02:12:49.590Z,19.20
2023-06-23T02:15:18.846Z,16.67
2023-06-23T02:17:50.180Z,12.15
2023-06-23T02:20:17.826Z,12.45
2023-06-23T02:22:49.817Z,12.27
2023-06-23T02:25:17.947Z,14.20
2023-06-23T02:27:46.155Z,14.73
2023-06-23T02:30:13.483Z,13.95
2023-06-23T02:32:40.064Z,14.77
2023-06-23T02:35:08.752Z,15.00
2023-06-23T02:37:40.321Z,12.55
2023-06-23T02:40:11.533Z,14.05
2023-06-23T02:45:16.788Z,15.40
2023-06-23T02:47:46.204Z,15.43
2023-06-23T02:50:14.422Z,13.13
2023-06-23T02:52:46.456Z,13.68
2023-06-23T02:55:17.964Z,14.95
2023-06-23T02:57:46.648Z,15.25
2023-06-23T03:00:15.614Z,14.95
2023-06-23T03:02:44.317Z,16.90
2023-06-23T03:05:12.080Z,17.40
2023-06-23T03:07:38.973Z,13.00
2023-06-23T03:10:09.038Z,15.60
2023-06-23T03:12:35.894Z,14.07
2023-06-23T03:15:04.700Z,12.40
2023-06-23T03:17:35.217Z,16.20
2023-06-23T03:20:19.816Z,14.88
2023-06-23T03:22:52.365Z,12.32
2023-06-23T03:25:23.815Z,13.70
2023-06-23T03:27:54.805Z,16.15
2023-06-23T03:30:31.971Z,14.80
2023-06-23T03:33:02.449Z,15.00
2023-06-23T03:35:38.690Z,14.63
2023-06-23T03:38:09.736Z,14.18
2023-06-23T03:40:40.887Z,15.63
2023-06-23T03:43:11.613Z,16.58
2023-06-23T03:45:40.608Z,13.40
2023-06-23T03:48:10.766Z,17.60
2023-06-23T03:50:40.409Z,15.93
2023-06-23T03:53:08.202Z,16.20
2023-06-23T03:55:37.063Z,16.27
2023-06-23T03:58:08.112Z,15.50
2023-06-23T04:00:37.254Z,16.20
2023-06-23T04:03:07.735Z,18.55
2023-06-23T04:05:36.644Z,16.33
2023-06-23T04:08:05.207Z,17.05
2023-06-23T04:10:33.949Z,16.80
2023-06-23T04:13:02.552Z,16.33
2023-06-23T04:15:30.897Z,16.38
2023-06-23T04:17:59.398Z,23.17
2023-06-23T04:20:27.395Z,15.75
2023-06-23T04:22:56.244Z,20.85
2023-06-23T04:25:24.339Z,17.50
2023-06-23T04:27:56.507Z,17.40
2023-06-23T04:30:25.289Z,17.67
2023-06-23T04:32:52.052Z,21.27
2023-06-23T04:35:18.925Z,18.35
2023-06-23T04:37:54.761Z,19.80
2023-06-23T04:40:37.624Z,24.73
2023-06-23T04:43:10.450Z,20.58
2023-06-23T04:45:42.449Z,22.88
2023-06-23T04:48:11.606Z,20.73
2023-06-23T04:50:41.253Z,24.58
2023-06-23T04:53:14.284Z,22.98
2023-06-23T04:55:45.047Z,19.75
2023-06-23T04:58:13.721Z,25.67
2023-06-23T05:00:42.571Z,21.38
2023-06-23T05:03:10.565Z,22.25
2023-06-23T05:05:39.006Z,20.67
2023-06-23T05:08:06.997Z,22.02
2023-06-23T05:10:34.912Z,24.90
2023-06-23T05:13:04.734Z,18.48
2023-06-23T05:15:31.431Z,21.38
2023-06-23T05:18:02.701Z,19.63
2023-06-23T05:22:59.781Z,21.42
2023-06-23T05:25:28.147Z,18.95
2023-06-23T05:27:56.918Z,18.35
2023-06-23T05:30:25.190Z,20.30
2023-06-23T05:32:53.834Z,22.45
2023-06-23T05:35:22.704Z,15.38
2023-06-23T05:37:51.202Z,19.13
2023-06-23T05:40:17.970Z,16.83
2023-06-23T05:42:45.651Z,19.52
2023-06-23T05:45:13.277Z,19.23
2023-06-23T05:47:52.999Z,19.90
2023-06-23T05:50:24.300Z,17.20
2023-06-23T05:55:28.464Z,15.50
2023-06-23T05:57:58.829Z,20.00
2023-06-23T06:00:28.009Z,14.15
2023-06-23T06:02:56.524Z,15.40
2023-06-23T06:05:24.971Z,13.45
2023-06-23T06:07:52.567Z,15.05
2023-06-23T06:10:20.901Z,14.77
2023-06-23T06:12:51.179Z,14.63
2023-06-23T06:15:18.672Z,13.20
2023-06-23T06:17:46.795Z,10.57
2023-06-23T06:20:16.148Z,13.20
2023-06-23T06:22:46.138Z,15.25
2023-06-23T06:25:14.563Z,11.93
2023-06-23T06:27:44.933Z,11.80
2023-06-23T06:30:12.781Z,15.77
2023-06-23T06:32:42.486Z,11.85
2023-06-23T06:35:11.707Z,14.02
2023-06-23T06:37:44.429Z,11.80
2023-06-23T06:40:13.335Z,12.32
2023-06-23T06:42:40.261Z,13.05
2023-06-23T06:45:08.741Z,12.27
2023-06-23T06:47:40.725Z,13.15
2023-06-23T06:50:09.830Z,10.60
2023-06-23T06:52:45.468Z,11.15
2023-06-23T06:55:20.858Z,12.70
2023-06-23T06:57:48.843Z,11.40
2023-06-23T07:00:18.286Z,9.20
2023-06-23T07:02:45.523Z,11.40
2023-06-23T07:05:12.485Z,11.20
2023-06-23T07:07:39.118Z,10.13
2023-06-23T07:10:06.402Z,9.88
2023-06-23T07:12:33.110Z,11.20
2023-06-23T07:14:59.697Z,9.82
2023-06-23T07:17:26.598Z,9.98
2023-06-23T07:19:53.255Z,9.50
2023-06-23T07:22:20.183Z,10.10
2023-06-23T07:24:46.741Z,9.18
2023-06-23T07:27:13.359Z,8.25
2023-06-23T07:29:39.852Z,10.25
2023-06-23T07:32:08.170Z,10.25
2023-06-23T07:34:34.921Z,11.25
2023-06-23T07:37:01.512Z,9.88
2023-06-23T07:39:28.051Z,10.50
2023-06-23T07:41:54.751Z,9.95
2023-06-23T07:44:21.308Z,15.57
2023-06-23T07:46:48.056Z,9.95
2023-06-23T07:49:14.608Z,8.90
2023-06-23T07:51:41.140Z,9.73
2023-06-23T07:54:07.878Z,9.82
2023-06-23T07:56:34.696Z,9.18
2023-06-23T07:59:01.267Z,9.13
2023-06-23T08:01:27.883Z,9.40
2023-06-23T08:03:54.682Z,10.85
2023-06-23T08:06:21.380Z,9.05
2023-06-23T08:08:47.999Z,8.82
2023-06-23T08:11:17.442Z,8.80
2023-06-23T08:13:44.289Z,8.75
2023-06-23T08:16:10.992Z,8.82
2023-06-23T08:18:37.636Z,11.07
2023-06-23T08:21:04.376Z,11.75
2023-06-23T08:23:35.434Z,8.23
2023-06-23T08:26:03.676Z,9.25
2023-06-23T08:28:30.216Z,8.85
2023-06-23T08:30:57.914Z,9.60
2023-06-23T08:33:24.617Z,9.68
2023-06-23T08:35:51.191Z,8.95
2023-06-23T08:38:17.744Z,10.98
2023-06-23T08:40:44.446Z,11.30
2023-06-23T08:43:11.214Z,10.70
2023-06-23T08:45:41.045Z,12.25
2023-06-23T08:48:08.778Z,10.93
2023-06-23T08:50:37.023Z,10.05
2023-06-23T08:53:07.023Z,11.25
2023-06-23T08:55:34.216Z,10.13
2023-06-23T08:58:03.964Z,10.23
2023-06-23T09:00:30.803Z,9.77
2023-06-23T09:02:57.931Z,9.18
2023-06-23T09:05:24.795Z,10.65
2023-06-23T09:07:51.598Z,11.02
2023-06-23T09:10:18.473Z,10.63
2023-06-23T09:13:04.902Z,10.90
2023-06-23T09:15:35.865Z,13.75
2023-06-23T09:18:09.504Z,13.13
2023-06-23T09:20:38.460Z,10.90
2023-06-23T09:23:06.803Z,13.50
2023-06-23T09:25:39.398Z,10.65
2023-06-23T09:28:06.373Z,10.80
2023-06-23T09:30:36.801Z,12.27
2023-06-23T09:33:06.808Z,13.75
2023-06-23T09:35:34.177Z,10.38
2023-06-23T09:38:02.865Z,11.68
2023-06-23T09:40:29.732Z,11.80
2023-06-23T09:43:00.460Z,11.73
2023-06-23T09:45:27.212Z,9.38
2023-06-23T09:47:53.792Z,13.98
2023-06-23T09:50:23.488Z,14.73
2023-06-23T09:53:04.646Z,15.77
2023-06-23T09:55:32.117Z,12.98
2023-06-23T09:57:59.276Z,15.93
2023-06-23T10:00:33.192Z,12.40
2023-06-23T10:03:00.252Z,14.25
2023-06-23T10:05:34.161Z,11.70
2023-06-23T10:08:12.460Z,15.48
2023-06-23T10:10:43.877Z,16.48
2023-06-23T10:13:10.883Z,12.95
2023-06-23T10:15:38.347Z,13.63
2023-06-23T10:18:05.140Z,14.57
2023-06-23T10:20:31.999Z,11.38
2023-06-23T10:22:59.244Z,11.07
2023-06-23T10:25:27.238Z,11.80
2023-06-23T10:27:56.818Z,10.82
2023-06-23T10:30:24.295Z,9.88
2023-06-23T10:32:56.045Z,9.75
2023-06-23T10:35:23.824Z,11.45
2023-06-23T10:38:03.284Z,10.52
2023-06-23T10:40:34.893Z,11.18
2023-06-23T10:43:02.220Z,13.13
2023-06-23T10:45:29.565Z,11.63
2023-06-23T10:47:56.620Z,18.55
2023-06-23T10:50:23.988Z,9.40
2023-06-23T10:52:50.543Z,7.57
2023-06-23T10:56:07.621Z,12.68
2023-06-23T10:58:49.624Z,9.02
2023-06-23T11:01:16.261Z,10.32
2023-06-23T11:03:42.877Z,10.18
2023-06-23T11:06:11.043Z,9.18
2023-06-23T11:08:40.082Z,8.75
2023-06-23T11:11:08.787Z,10.10
2023-06-23T11:13:42.206Z,9.90
2023-06-23T11:16:32.385Z,9.45
2023-06-23T11:19:01.776Z,10.43
2023-06-23T11:21:35.116Z,7.30
2023-06-23T11:24:14.732Z,6.93
2023-06-23T11:26:50.302Z,7.75
2023-06-23T11:29:20.607Z,7.20
2023-06-23T11:32:17.620Z,7.10
2023-06-23T11:34:55.569Z,7.30
2023-06-23T11:37:25.755Z,6.13
2023-06-23T11:39:54.073Z,7.15
2023-06-23T11:42:21.108Z,6.88
2023-06-23T11:44:48.361Z,8.75
2023-06-23T11:47:14.927Z,6.72
2023-06-23T11:49:42.665Z,6.13
2023-06-23T11:52:10.002Z,6.35
2023-06-23T11:54:37.692Z,7.47
2023-06-23T11:57:04.761Z,7.43
2023-06-23T11:59:40.445Z,7.53
2023-06-23T12:02:07.507Z,6.65
2023-06-23T12:04:36.166Z,7.40
2023-06-23T12:07:03.421Z,6.75
2023-06-23T12:09:31.192Z,5.78
2023-06-23T12:11:59.092Z,5.88
2023-06-23T12:14:31.688Z,6.05
2023-06-23T12:17:09.379Z,6.72
2023-06-23T12:19:37.319Z,7.30
2023-06-23T12:22:04.742Z,6.75
2023-06-23T12:24:32.240Z,7.82
2023-06-23T12:27:01.859Z,6.93
2023-06-23T12:29:31.633Z,6.43
2023-06-23T12:32:00.369Z,6.70
2023-06-23T12:34:37.565Z,8.18
2023-06-23T12:37:12.785Z,6.70
2023-06-23T12:39:40.367Z,6.60
2023-06-23T12:42:09.731Z,6.50
2023-06-23T12:44:38.788Z,7.80
2023-06-23T12:47:06.131Z,11.90
2023-06-23T12:49:33.562Z,6.28
2023-06-23T12:52:01.300Z,9.07
2023-06-23T12:54:28.586Z,7.93
2023-06-23T12:57:03.758Z,9.05
2023-06-23T12:59:30.629Z,7.20
2023-06-23T13:01:57.334Z,8.90
2023-06-23T13:04:24.393Z,6.95
2023-06-23T13:06:52.311Z,7.63
2023-06-23T13:09:19.332Z,5.68
2023-06-23T13:11:46.239Z,6.18
2023-06-23T13:14:12.981Z,8.82
2023-06-23T13:16:39.563Z,6.57
2023-06-23T13:19:06.127Z,7.80
2023-06-23T13:21:32.752Z,7.22
2023-06-23T13:24:00.445Z,4.82
2023-06-23T13:26:27.258Z,5.65
2023-06-23T13:28:53.875Z,7.38
2023-06-23T13:31:20.533Z,5.57
2023-06-23T13:33:47.368Z,6.68
2023-06-23T13:36:13.953Z,5.47
2023-06-23T13:38:41.775Z,5.72
2023-06-23T13:41:08.301Z,7.45
2023-06-23T13:43:34.859Z,7.55
2023-06-23T13:46:01.730Z,5.55
2023-06-23T13:48:28.547Z,4.50
2023-06-23T13:50:55.120Z,5.10
2023-06-23T13:53:21.794Z,6.68
2023-06-23T13:55:48.303Z,9.57
2023-06-23T13:58:14.889Z,6.82
2023-06-23T14:00:41.464Z,5.45
2023-06-23T14:03:08.114Z,8.18
2023-06-23T14:05:51.663Z,4.95
2023-06-23T14:08:20.008Z,5.93
2023-06-23T14:10:46.733Z,6.15
2023-06-23T14:13:13.257Z,4.22
2023-06-23T14:15:39.821Z,7.55
2023-06-23T14:18:06.657Z,7.35
2023-06-23T14:20:33.204Z,4.72
2023-06-23T14:22:59.799Z,4.30
2023-06-23T14:25:26.334Z,6.65
2023-06-23T14:27:52.949Z,6.95
2023-06-23T14:30:19.503Z,4.72
2023-06-23T14:32:46.170Z,5.18
2023-06-23T14:35:12.756Z,5.68
2023-06-23T14:37:39.400Z,8.65
2023-06-23T14:40:06.500Z,4.72
2023-06-23T14:42:33.169Z,4.25
2023-06-23T14:44:59.863Z,5.07
2023-06-23T14:47:26.468Z,5.00
2023-06-23T14:49:53.096Z,5.65
2023-06-23T14:52:20.299Z,6.57
2023-06-23T14:54:46.848Z,6.35
2023-06-23T14:57:13.406Z,5.60
2023-06-23T14:59:39.953Z,4.95
2023-06-23T15:02:06.730Z,4.43
2023-06-23T15:04:33.365Z,5.78
2023-06-23T15:07:00.368Z,4.65
2023-06-23T15:09:26.960Z,3.47
2023-06-23T15:11:53.957Z,5.30
2023-06-23T15:14:20.578Z,4.13
2023-06-23T15:16:47.145Z,3.72
2023-06-23T15:19:13.797Z,5.18
2023-06-23T15:21:40.441Z,4.68
2023-06-23T15:24:07.188Z,4.18
2023-06-23T15:26:33.894Z,5.50
2023-06-23T15:29:00.483Z,5.97
2023-06-23T15:31:27.060Z,11.85
2023-06-23T15:33:53.600Z,4.97
2023-06-23T15:36:20.177Z,8.13
2023-06-23T15:38:46.778Z,7.68
2023-06-23T15:41:13.325Z,6.38
2023-06-23T15:43:39.883Z,4.20
2023-06-23T15:46:06.917Z,4.28
2023-06-23T15:48:34.742Z,4.57
2023-06-23T15:51:01.469Z,5.88
2023-06-23T15:53:28.072Z,4.28
2023-06-23T15:55:54.597Z,4.80
2023-06-23T15:58:21.122Z,4.03
2023-06-23T16:00:47.704Z,5.30
2023-06-23T16:03:14.395Z,4.75
2023-06-23T16:05:41.906Z,4.88
2023-06-23T16:08:08.733Z,3.95
2023-06-23T16:10:35.324Z,4.85
2023-06-23T16:13:01.973Z,4.35
2023-06-23T16:15:28.577Z,4.25
2023-06-23T16:17:55.200Z,4.50
2023-06-23T16:20:22.392Z,4.95
2023-06-23T16:22:49.163Z,5.93
2023-06-23T16:25:15.901Z,4.20
2023-06-23T16:27:42.542Z,4.40
2023-06-23T16:30:09.299Z,7.05
2023-06-23T16:32:35.933Z,8.38
2023-06-23T16:35:03.303Z,4.95
2023-06-23T16:37:29.937Z,4.82
2023-06-23T16:39:56.532Z,5.18
2023-06-23T16:42:23.227Z,5.20
2023-06-23T16:44:50.360Z,5.03
2023-06-23T16:47:17.013Z,7.63
2023-06-23T16:49:43.726Z,7.90
2023-06-23T16:52:10.540Z,3.78
2023-06-23T16:54:37.126Z,4.38
2023-06-23T16:57:03.866Z,4.65
2023-06-23T16:59:30.469Z,3.80
2023-06-23T17:01:57.622Z,5.80
2023-06-23T17:04:24.234Z,5.90
2023-06-23T17:06:50.861Z,9.95
2023-06-23T17:09:17.816Z,5.85
2023-06-23T17:11:44.465Z,6.60
2023-06-23T17:14:13.350Z,5.70
2023-06-23T17:16:39.916Z,6.93
2023-06-23T17:19:06.537Z,5.40
2023-06-23T17:21:33.112Z,5.13
2023-06-23T17:23:59.832Z,5.68
2023-06-23T17:26:26.445Z,5.43
2023-06-23T17:28:53.111Z,5.68
2023-06-23T17:31:19.688Z,5.25
2023-06-23T17:33:46.594Z,5.88
2023-06-23T17:36:16.079Z,4.90
2023-06-23T17:38:42.651Z,5.38
2023-06-23T17:41:09.189Z,6.43
2023-06-23T17:43:35.785Z,5.10
2023-06-23T17:46:02.396Z,5.70
2023-06-23T17:48:28.991Z,5.32
2023-06-23T17:50:55.628Z,6.13
2023-06-23T17:53:22.645Z,4.90
2023-06-23T17:55:49.389Z,5.32
2023-06-23T17:58:16.008Z,6.85
2023-06-23T18:00:42.641Z,5.03
2023-06-23T18:03:09.363Z,6.18
2023-06-23T18:05:36.316Z,5.95
2023-06-23T18:08:03.109Z,5.72
2023-06-23T18:10:29.633Z,6.43
2023-06-23T18:12:56.198Z,7.28
2023-06-23T18:15:22.859Z,8.23
2023-06-23T18:17:50.300Z,4.72
2023-06-23T18:20:17.057Z,6.25
2023-06-23T18:22:44.257Z,5.22
2023-06-23T18:25:10.943Z,6.88
2023-06-23T18:27:37.537Z,4.28
2023-06-23T18:30:04.761Z,6.22
2023-06-23T18:32:31.550Z,5.90
2023-06-23T18:34:58.104Z,5.20
2023-06-23T18:37:24.674Z,6.53
2023-06-23T18:39:51.340Z,5.22
2023-06-23T18:42:18.419Z,5.35
2023-06-23T18:44:45.060Z,5.80
2023-06-23T18:47:11.662Z,5.38
2023-06-23T18:49:38.308Z,4.35
2023-06-23T18:52:05.181Z,9.82
2023-06-23T18:54:31.688Z,5.75
2023-06-23T18:56:59.547Z,5.63
2023-06-23T18:59:26.793Z,5.55
2023-06-23T19:01:54.264Z,4.70
2023-06-23T19:04:20.824Z,7.07
2023-06-23T19:06:47.936Z,6.05
2023-06-23T19:09:14.464Z,6.70
2023-06-23T19:11:42.944Z,5.35
2023-06-23T19:14:09.497Z,4.70
2023-06-23T19:16:36.076Z,5.32
2023-06-23T19:19:02.613Z,7.07
2023-06-23T19:21:29.324Z,5.13
2023-06-23T19:23:56.399Z,7.78
2023-06-23T19:26:22.994Z,5.70
2023-06-23T19:28:49.785Z,4.82
2023-06-23T19:31:26.614Z,5.75
2023-06-23T19:33:53.965Z,7.75
2023-06-23T19:36:20.573Z,7.32
2023-06-23T19:38:47.201Z,5.28
2023-06-23T19:41:13.742Z,7.60
2023-06-23T19:43:40.301Z,6.75
2023-06-23T19:46:06.863Z,4.85
2023-06-23T19:48:33.428Z,6.65
2023-06-23T19:50:59.990Z,5.75
2023-06-23T19:53:26.590Z,5.15
2023-06-23T19:55:53.134Z,6.47
2023-06-23T19:58:20.642Z,5.47
2023-06-23T20:00:47.908Z,7.70
2023-06-23T20:03:14.661Z,5.72
2023-06-23T20:05:41.300Z,5.93
2023-06-23T20:08:08.051Z,6.05
2023-06-23T20:10:36.573Z,7.30
2023-06-23T20:13:03.516Z,7.68
2023-06-23T20:15:30.376Z,4.68
2023-06-23T20:17:57.002Z,6.15
2023-06-23T20:20:23.611Z,5.30
2023-06-23T20:22:50.227Z,5.93
2023-06-23T20:25:16.960Z,5.32
2023-06-23T20:27:43.568Z,6.95
2023-06-23T20:30:11.962Z,5.68
2023-06-23T20:32:38.600Z,5.68
2023-06-23T20:35:06.135Z,5.00
2023-06-23T20:37:32.737Z,6.82
2023-06-23T20:39:59.944Z,5.45
2023-06-23T20:42:26.491Z,5.68
2023-06-23T20:44:53.035Z,8.07
2023-06-23T20:47:19.683Z,5.55
2023-06-23T20:49:46.265Z,5.90
2023-06-23T20:52:13.893Z,6.93
2023-06-23T20:54:41.683Z,8.18
2023-06-23T20:57:08.280Z,5.80
2023-06-23T20:59:34.820Z,7.53
2023-06-23T21:02:01.471Z,6.47
2023-06-23T21:04:28.112Z,5.35
2023-06-23T21:06:54.831Z,6.40
2023-06-23T21:09:21.468Z,8.30
2023-06-23T21:11:48.043Z,7.03
2023-06-23T21:14:14.598Z,7.93
2023-06-23T21:16:45.139Z,8.85
2023-06-23T21:19:11.731Z,5.70
2023-06-23T21:21:38.300Z,7.80
2023-06-23T21:24:05.317Z,8.68
2023-06-23T21:26:31.842Z,8.85
2023-06-23T21:28:58.407Z,6.05
2023-06-23T21:31:24.984Z,9.15
2023-06-23T21:33:51.579Z,9.93
2023-06-23T21:36:18.186Z,9.63
2023-06-23T21:38:44.736Z,10.82
2023-06-23T21:41:11.274Z,8.63
2023-06-23T21:43:37.891Z,7.15
2023-06-23T21:46:04.637Z,8.80
2023-06-23T21:48:31.433Z,9.70
2023-06-23T21:50:57.968Z,7.65
2023-06-23T21:53:24.556Z,6.40
2023-06-23T21:55:51.172Z,13.60
2023-06-23T21:58:17.817Z,7.30
2023-06-23T22:00:44.354Z,8.20
2023-06-23T22:03:11.042Z,9.27
2023-06-23T22:05:37.642Z,7.88
2023-06-23T22:08:04.432Z,5.90
2023-06-23T22:10:31.002Z,6.88
2023-06-23T22:12:57.600Z,8.82
2023-06-23T22:15:24.603Z,6.07
2023-06-23T22:17:51.379Z,6.32
2023-06-23T22:20:18.001Z,5.95
2023-06-23T22:22:44.825Z,5.55
2023-06-23T22:25:12.840Z,6.40
2023-06-23T22:27:41.382Z,9.60
2023-06-23T22:30:08.577Z,7.55
2023-06-23T22:32:35.346Z,7.45
2023-06-23T22:35:01.968Z,6.93
2023-06-23T22:37:28.549Z,5.10
2023-06-23T22:39:55.098Z,6.57
2023-06-23T22:42:21.882Z,6.53
2023-06-23T22:44:48.405Z,5.95
2023-06-23T22:47:18.208Z,7.43
2023-06-23T22:49:44.796Z,10.38
2023-06-23T22:52:11.316Z,9.07
2023-06-23T22:54:37.924Z,7.28
2023-06-23T22:57:04.723Z,6.45
2023-06-23T22:59:31.308Z,7.45
2023-06-23T23:01:57.823Z,7.38
2023-06-23T23:04:24.516Z,6.15
2023-06-23T23:06:51.333Z,7.22
2023-06-23T23:09:18.137Z,7.68
2023-06-23T23:11:44.693Z,7.75
2023-06-23T23:14:11.290Z,6.85
2023-06-23T23:16:37.812Z,8.60
2023-06-23T23:19:04.423Z,6.50
2023-06-23T23:21:30.970Z,6.55
2023-06-23T23:23:57.892Z,6.28
2023-06-23T23:26:24.428Z,8.40
2023-06-23T23:28:51.044Z,7.78
2023-06-23T23:31:17.618Z,7.38
2023-06-23T23:33:45.084Z,7.78
2023-06-23T23:36:12.470Z,8.10
2023-06-23T23:38:39.337Z,7.05
2023-06-23T23:41:05.920Z,9.88
2023-06-23T23:43:32.492Z,10.23
2023-06-23T23:45:59.029Z,8.63
2023-06-23T23:48:25.603Z,9.32
2023-06-23T23:50:52.116Z,7.10
2023-06-23T23:53:18.773Z,7.05
2023-06-23T23:55:45.362Z,7.80
2023-06-23T23:58:12.257Z,7.82
